In Rescue
 
Open Full Screen Window  High Contrast Mode
Wind Gusting 17 knots
13
October 25, 2021 2:19 PM CDT
Present Weather: Mist
Weather Information
Wind Direction
  070 °
Wind Speed
  13 kt (15 mph)
Wind Gust
  17 kt (20 mph)
Altimeter
30.16 in
Visibility
4 SM
Temperature
06° C
43° F
Dewpoint
04° C
39° F
Humidity
87%
1hr Rain Fall
00.00 in.
24hr Rain Fall
00.02 in.
Sky Condition
Overcast @ 2,200 ft
Broken @ 1,600 ft
Scattered @ 1,000 ft
MVFR

METAR KCOQ 251919Z AUTO 07013G17KT 4SM BR SCT010 BKN016 OVC022 06/04 A3016 RMK AO2 TSNO

FAA Disclaimer: The data displayed is for advisory purposes only and is not to be used for flight planning or operations.